Time;durP1;ratioP1;P1;durP2;ratioP2;P2;SDS_P1;SDS_P2;PMS_P1;PMS_P2;Temp;Humidity;BMP_temperature;BMP_pressure;BME280_temperature;BME280_humidity;BME280_pressure;Samples;Min_cycle;Max_cycle;Signal;HPM_P1;HPM_P2
2021/07/24 06:11:12;;;;;;;12.50;9.50;;;17.70;98.30;;;;;;5113903;23;20461;-83
2021/07/24 06:13:43;;;;;;;10.57;9.47;;;17.80;98.30;;;;;;5125512;23;20426;-84
2021/07/24 07:23:41;;;;;;;12.17;8.57;;;19.80;98.30;;;;;;4923394;24;20505;-86
2021/07/24 07:25:57;;;;;;;9.50;8.43;;;19.90;98.30;;;;;;4931115;24;20532;-85
2021/07/24 07:36:47;;;;;;;9.23;8.33;;;20.30;98.30;;;;;;4977209;23;20431;-86
2021/07/24 07:42:27;;;;;;;9.13;8.23;;;20.60;98.30;;;;;;5020605;23;20494;-86
2021/07/24 07:45:04;;;;;;;8.77;7.53;;;20.70;98.30;;;;;;5117019;23;20775;-86
2021/07/24 07:50:21;;;;;;;8.33;7.47;;;20.80;98.30;;;;;;5112919;23;20453;-86
2021/07/24 07:53:03;;;;;;;10.63;7.00;;;21.10;98.30;;;;;;5115139;23;20448;-86
2021/07/24 07:55:41;;;;;;;10.73;7.17;;;21.00;98.30;;;;;;5116849;23;20454;-86
2021/07/24 07:58:20;;;;;;;;;;;;;;;;;;;;;
2021/07/24 08:01:30;;;;;;;9.53;6.90;;;21.00;98.30;;;;;;5082699;23;20568;-86
2021/07/24 09:31:40;;;;;;;7.90;6.63;;;23.90;93.90;;;;;;5119325;23;20448;-86
2021/07/24 09:54:24;;;;;;;7.40;6.70;;;24.80;91.40;;;;;;5049581;23;20431;-88
2021/07/24 09:56:40;;;;;;;8.57;6.80;;;24.60;91.30;;;;;;5049761;23;20432;-88
2021/07/24 09:58:46;;;;;;;8.90;7.50;;;24.60;91.90;;;;;;5065851;23;20427;-87
2021/07/24 10:01:02;;;;;;;8.40;7.17;;;24.80;92.10;;;;;;5093597;23;20439;-86
2021/07/24 10:03:12;;;;;;;8.07;6.93;;;25.10;91.40;;;;;;5101826;23;20419;-87
2021/07/24 10:05:16;;;;;;;7.10;6.40;;;25.00;90.80;;;;;;5101646;23;20450;-86
2021/07/24 10:07:19;;;;;;;7.20;6.30;;;25.00;91.10;;;;;;5102285;23;20450;-86
2021/07/24 10:09:27;;;;;;;8.37;7.27;;;25.20;90.60;;;;;;5101338;23;20461;-86
2021/07/24 10:11:30;;;;;;;9.40;8.60;;;25.20;90.80;;;;;;5093955;23;20496;-86
2021/07/24 10:13:34;;;;;;;7.40;6.70;;;25.40;90.40;;;;;;5094139;23;21019;-86
2021/07/24 10:15:42;;;;;;;7.90;7.10;;;25.40;89.10;;;;;;5100516;23;20443;-86
2021/07/24 10:17:46;;;;;;;8.10;7.00;;;25.00;89.40;;;;;;5100313;23;20869;-87
2021/07/24 10:19:49;;;;;;;6.77;6.07;;;25.00;89.60;;;;;;5092419;23;20972;-87
2021/07/24 10:21:55;;;;;;;7.43;6.73;;;24.80;90.80;;;;;;5114240;23;20439;-87
2021/07/24 10:23:59;;;;;;;8.03;7.23;;;25.10;90.60;;;;;;5118949;23;20467;-86
2021/07/24 10:26:10;;;;;;;7.90;6.77;;;25.30;89.60;;;;;;5119031;23;20439;-86
2021/07/24 10:28:15;;;;;;;7.10;6.50;;;25.60;89.10;;;;;;5119303;23;20426;-86
2021/07/24 10:30:27;;;;;;;9.30;6.30;;;25.80;89.00;;;;;;5119106;23;20426;-86
2021/07/24 10:32:34;;;;;;;9.13;6.30;;;25.70;88.90;;;;;;5111689;23;20461;-86
2021/07/24 10:34:40;;;;;;;7.07;6.47;;;25.60;87.80;;;;;;5109858;23;20471;-86
2021/07/24 10:36:44;;;;;;;6.50;5.90;;;25.60;88.20;;;;;;5109753;23;20411;-86
2021/07/24 10:39:01;;;;;;;6.87;6.17;;;25.50;88.60;;;;;;5103172;23;20433;-86
2021/07/24 10:41:36;;;;;;;6.70;6.10;;;25.80;87.70;;;;;;5101569;23;20795;-87
2021/07/24 10:44:00;;;;;;;8.63;6.43;;;25.90;86.90;;;;;;5002772;23;20995;-86
2021/07/24 10:46:03;;;;;;;7.80;6.80;;;25.80;87.10;;;;;;5066426;23;21048;-86
2021/07/24 10:48:21;;;;;;;7.90;6.40;;;25.80;87.40;;;;;;5100967;23;20519;-86
2021/07/24 10:50:24;;;;;;;7.33;5.90;;;26.10;86.40;;;;;;5093459;23;20416;-86
2021/07/24 10:52:26;;;;;;;6.73;6.10;;;26.50;85.80;;;;;;5101386;23;20422;-86
2021/07/24 10:54:33;;;;;;;6.30;5.70;;;26.50;84.70;;;;;;5101069;23;20908;-86
2021/07/24 10:56:39;;;;;;;6.23;5.70;;;26.60;84.10;;;;;;5101323;23;20477;-86
2021/07/24 10:59:24;;;;;;;6.00;5.60;;;26.90;83.30;;;;;;5101644;23;20446;-86
2021/07/24 11:01:44;;;;;;;6.30;5.70;;;26.90;82.20;;;;;;5102079;23;20863;-86
2021/07/24 11:03:49;;;;;;;7.40;6.40;;;26.90;81.90;;;;;;5101695;23;20429;-86
2021/07/24 11:05:51;;;;;;;7.40;5.60;;;26.90;82.10;;;;;;5093574;23;20462;-86
2021/07/24 11:07:55;;;;;;;6.50;5.90;;;27.20;81.80;;;;;;5101160;23;20517;-86
2021/07/24 11:10:06;;;;;;;6.53;5.70;;;27.60;80.20;;;;;;5101426;23;20427;-87
2021/07/24 11:12:16;;;;;;;6.57;5.70;;;27.60;80.20;;;;;;5101141;23;20446;-86
2021/07/24 11:14:43;;;;;;;7.20;5.80;;;28.00;81.40;;;;;;5101801;23;20418;-87
2021/07/24 11:17:23;;;;;;;6.33;5.80;;;27.90;78.70;;;;;;5077659;23;20426;-86
2021/07/24 11:19:27;;;;;;;6.00;5.40;;;28.00;79.20;;;;;;5109826;23;20415;-87
2021/07/24 11:22:10;;;;;;;6.30;5.67;;;28.20;78.60;;;;;;5096830;23;20505;-86
2021/07/24 11:24:13;;;;;;;5.90;5.30;;;28.00;78.60;;;;;;5100903;23;20438;-87
2021/07/24 11:31:02;;;;;;;7.37;6.23;;;28.60;78.00;;;;;;5147011;23;20514;-82
2021/07/24 11:56:37;;;;;;;6.88;6.28;;;31.60;73.50;;;;;;4864672;24;21002;-82
2021/07/24 11:58:41;;;;;;;6.10;5.45;;;31.60;72.60;;;;;;4919885;24;20507;-83
2021/07/24 12:00:46;;;;;;;6.40;5.82;;;31.60;72.40;;;;;;4965734;23;20428;-83
2021/07/24 12:02:49;;;;;;;6.65;6.05;;;31.30;71.60;;;;;;5051006;23;20463;-83
2021/07/24 12:04:53;;;;;;;6.15;5.65;;;31.10;73.00;;;;;;5117182;23;20448;-83
2021/07/24 12:07:00;;;;;;;12.45;11.05;;;31.50;72.40;;;;;;5162871;23;20425;-83
2021/07/24 12:09:04;;;;;;;9.57;5.57;;;30.90;73.50;;;;;;5151699;23;20465;-83
2021/07/24 12:11:15;;;;;;;6.53;5.93;;;30.80;74.10;;;;;;5152151;23;20423;-83
2021/07/24 12:13:25;;;;;;;6.80;6.10;;;31.00;73.10;;;;;;5144063;23;20420;-83
2021/07/24 12:15:54;;;;;;;7.30;6.70;;;31.50;72.30;;;;;;5151266;23;20530;-83
2021/07/24 12:18:19;;;;;;;5.95;5.45;;;31.30;72.10;;;;;;5150775;23;20519;-83
2021/07/24 12:20:23;;;;;;;6.57;6.00;;;30.90;73.00;;;;;;5150864;23;20501;-84
2021/07/24 12:22:28;;;;;;;7.03;6.43;;;30.90;72.70;;;;;;5151990;23;20253;-84
2021/07/24 12:24:31;;;;;;;8.80;6.60;;;31.00;72.00;;;;;;5144001;23;20447;-84
2021/07/24 12:26:36;;;;;;;6.65;6.10;;;31.00;73.10;;;;;;5152939;23;20439;-84
2021/07/24 12:28:42;;;;;;;8.98;6.82;;;31.00;72.70;;;;;;5152061;23;20423;-83
2021/07/24 12:30:45;;;;;;;7.25;6.65;;;30.90;72.40;;;;;;5152434;23;20200;-84
2021/07/24 12:32:48;;;;;;;6.55;5.95;;;31.40;72.50;;;;;;5144472;23;20487;-83
2021/07/24 12:34:51;;;;;;;6.45;5.85;;;31.70;71.60;;;;;;5152017;23;20510;-83
2021/07/24 12:36:57;;;;;;;7.10;6.50;;;31.50;71.50;;;;;;5144364;23;20793;-83
2021/07/24 12:39:00;;;;;;;6.53;5.93;;;31.20;71.70;;;;;;5152560;23;20420;-84
2021/07/24 12:41:06;;;;;;;5.85;5.45;;;31.30;72.90;;;;;;5144476;23;20452;-83
2021/07/24 12:43:13;;;;;;;6.57;5.97;;;32.00;71.70;;;;;;5152472;23;20921;-84
2021/07/24 12:45:25;;;;;;;6.30;5.57;;;32.40;71.20;;;;;;5151947;23;20443;-84
2021/07/24 12:47:36;;;;;;;7.43;6.68;;;32.90;70.90;;;;;;5152840;23;20483;-83
2021/07/24 12:49:41;;;;;;;6.63;6.03;;;33.90;68.90;;;;;;5152722;23;20168;-84
2021/07/24 12:51:44;;;;;;;6.82;6.22;;;34.20;67.40;;;;;;5144535;23;20242;-83
2021/07/24 12:53:51;;;;;;;7.32;6.38;;;33.80;66.40;;;;;;5153086;23;20548;-83
2021/07/24 12:55:54;;;;;;;6.68;6.10;;;33.40;69.10;;;;;;5152974;23;20507;-84
2021/07/24 12:58:01;;;;;;;6.97;6.28;;;33.00;68.50;;;;;;5152747;23;20177;-84
2021/07/24 13:00:07;;;;;;;7.28;6.68;;;33.10;68.50;;;;;;5152693;23;20607;-84
2021/07/24 13:02:11;;;;;;;9.35;8.52;;;33.10;69.70;;;;;;5146059;23;20186;-83
2021/07/24 13:04:15;;;;;;;7.35;6.65;;;33.10;69.00;;;;;;5152758;23;20264;-84
2021/07/24 13:06:19;;;;;;;8.30;7.50;;;33.30;68.00;;;;;;5153483;23;20255;-84
2021/07/24 13:08:22;;;;;;;9.80;7.07;;;33.40;68.50;;;;;;5155733;23;20178;-83
2021/07/24 13:10:26;;;;;;;7.80;7.00;;;33.80;69.00;;;;;;5161732;23;20505;-84
2021/07/24 13:12:30;;;;;;;8.10;6.95;;;33.50;67.30;;;;;;5152817;23;20683;-84
2021/07/24 13:14:33;;;;;;;7.95;7.05;;;33.00;69.00;;;;;;5152464;23;20548;-84
2021/07/24 13:16:36;;;;;;;8.73;8.00;;;33.20;68.20;;;;;;5152607;23;20229;-83
2021/07/24 13:18:41;;;;;;;8.75;7.85;;;33.10;68.20;;;;;;5152162;23;20209;-84
2021/07/24 13:20:44;;;;;;;9.60;8.80;;;33.50;67.90;;;;;;5144195;23;20257;-84
2021/07/24 13:22:47;;;;;;;8.40;7.60;;;33.80;67.40;;;;;;5144387;23;20209;-84
2021/07/24 13:25:01;;;;;;;8.82;8.02;;;34.20;66.10;;;;;;5152159;23;20256;-84
2021/07/24 13:29:26;;;;;;;9.13;8.23;;;33.20;67.80;;;;;;5143670;23;20170;-83
2021/07/24 13:31:29;;;;;;;9.00;8.18;;;33.20;68.60;;;;;;5152111;23;20645;-84
2021/07/24 13:33:32;;;;;;;8.63;7.88;;;34.00;67.90;;;;;;5143574;23;20177;-83
2021/07/24 13:35:37;;;;;;;9.18;8.30;;;34.30;67.20;;;;;;5143856;23;20225;-84
2021/07/24 13:37:41;;;;;;;9.13;8.25;;;35.10;66.30;;;;;;5152445;23;20205;-84
2021/07/24 13:39:44;;;;;;;9.20;8.30;;;35.80;64.80;;;;;;5143519;23;20501;-83
2021/07/24 13:41:47;;;;;;;10.18;9.13;;;35.90;64.30;;;;;;5152510;23;20208;-84
2021/07/24 13:43:51;;;;;;;9.23;8.43;;;35.30;64.70;;;;;;5152306;23;20212;-84
2021/07/24 13:45:54;;;;;;;10.15;8.80;;;35.30;65.40;;;;;;5152636;23;20653;-84
2021/07/24 13:47:58;;;;;;;10.93;10.00;;;34.30;65.90;;;;;;5144704;23;20574;-85
2021/07/24 13:50:01;;;;;;;9.98;9.15;;;34.20;66.70;;;;;;5144308;23;20213;-84
2021/07/24 13:52:07;;;;;;;10.18;8.77;;;33.90;67.70;;;;;;5166712;23;20184;-84
2021/07/24 13:54:10;;;;;;;9.40;8.60;;;34.00;67.20;;;;;;5172089;23;20241;-83
2021/07/24 13:56:17;;;;;;;10.52;9.60;;;34.40;66.80;;;;;;5172858;23;20221;-84
2021/07/24 13:58:20;;;;;;;10.35;9.48;;;33.70;67.10;;;;;;5163917;23;20185;-83
2021/07/24 14:00:23;;;;;;;10.70;9.85;;;32.70;69.10;;;;;;5172308;23;20197;-83
2021/07/24 14:02:26;;;;;;;10.18;9.27;;;32.90;69.00;;;;;;5171558;23;20188;-83
2021/07/24 14:04:29;;;;;;;9.80;8.82;;;33.40;68.00;;;;;;5171913;23;20173;-83
2021/07/24 14:06:35;;;;;;;9.80;8.98;;;33.30;68.40;;;;;;5163255;23;20643;-83
2021/07/24 14:08:41;;;;;;;9.68;8.77;;;33.10;68.90;;;;;;5156244;23;20466;-84
2021/07/24 14:10:44;;;;;;;9.85;8.55;;;34.00;67.40;;;;;;5152236;23;20165;-84
2021/07/24 14:12:47;;;;;;;11.20;9.45;;;34.10;67.40;;;;;;5158470;23;20188;-84
2021/07/24 14:14:56;;;;;;;9.95;9.18;;;34.20;66.40;;;;;;5153938;23;20197;-84
2021/07/24 14:16:59;;;;;;;10.27;9.38;;;33.80;67.40;;;;;;5152518;23;20180;-84
2021/07/24 14:19:02;;;;;;;9.52;8.73;;;33.70;67.00;;;;;;5152261;23;20212;-84
2021/07/24 14:21:06;;;;;;;9.98;9.18;;;34.20;67.20;;;;;;5144014;23;20261;-84
2021/07/24 14:23:09;;;;;;;10.25;9.45;;;34.40;65.60;;;;;;5152624;23;20562;-84
2021/07/24 14:25:14;;;;;;;11.38;10.27;;;34.20;66.10;;;;;;5151549;23;20224;-84
2021/07/24 14:27:17;;;;;;;9.55;8.85;;;34.40;67.00;;;;;;5151963;23;20598;-84
2021/07/24 14:29:21;;;;;;;10.82;9.93;;;34.60;65.70;;;;;;5143790;23;20211;-84
2021/07/24 14:31:24;;;;;;;9.90;9.00;;;33.50;66.70;;;;;;5151548;23;20581;-84
2021/07/24 14:33:28;;;;;;;11.82;9.80;;;33.10;68.50;;;;;;5151949;23;20498;-84
2021/07/24 14:35:31;;;;;;;11.20;10.10;;;33.40;68.90;;;;;;5151607;23;20209;-84
2021/07/24 14:37:34;;;;;;;11.02;10.10;;;33.30;67.50;;;;;;5143549;23;20212;-84
2021/07/24 14:39:37;;;;;;;10.23;9.35;;;31.80;69.40;;;;;;5151943;23;20499;-84
2021/07/24 14:41:42;;;;;;;11.60;10.50;;;31.70;70.40;;;;;;5152460;23;20820;-83
2021/07/24 14:43:45;;;;;;;11.45;10.55;;;30.80;71.30;;;;;;5151572;23;20891;-84
2021/07/24 14:45:48;;;;;;;11.73;10.70;;;30.60;72.50;;;;;;5151993;23;20523;-84
2021/07/24 14:47:51;;;;;;;12.23;11.00;;;30.20;73.20;;;;;;5142953;23;20536;-83
2021/07/24 14:49:56;;;;;;;12.63;11.20;;;30.30;73.90;;;;;;5144355;23;20420;-84
2021/07/24 14:51:59;;;;;;;12.43;11.33;;;30.10;73.70;;;;;;5143448;23;20435;-84
2021/07/24 14:54:02;;;;;;;11.93;10.70;;;30.20;73.80;;;;;;5151700;23;20821;-83
2021/07/24 14:56:06;;;;;;;11.80;10.80;;;30.20;73.80;;;;;;5151046;23;20784;-84
2021/07/24 14:58:10;;;;;;;12.20;11.00;;;29.60;74.60;;;;;;5150913;23;20424;-84
2021/07/24 15:00:14;;;;;;;15.27;11.40;;;29.10;75.50;;;;;;5151454;23;20425;-84
2021/07/24 15:02:17;;;;;;;11.63;10.63;;;28.80;76.10;;;;;;5150999;23;20455;-84
2021/07/24 15:04:21;;;;;;;14.50;11.50;;;28.80;76.60;;;;;;5151600;23;20476;-84
2021/07/24 15:06:24;;;;;;;11.93;10.83;;;29.10;76.10;;;;;;5151832;23;20444;-84
2021/07/24 15:08:27;;;;;;;12.13;11.07;;;29.20;76.50;;;;;;5151020;23;20425;-84
2021/07/24 15:10:31;;;;;;;12.87;11.60;;;29.40;75.50;;;;;;5151463;23;20432;-84
2021/07/24 15:12:34;;;;;;;15.33;11.10;;;29.60;75.10;;;;;;5151954;23;20901;-84
2021/07/24 15:14:41;;;;;;;13.20;11.90;;;29.60;75.00;;;;;;5145427;23;20428;-83
2021/07/24 15:16:44;;;;;;;15.43;10.83;;;29.30;75.20;;;;;;5155812;23;20423;-84
2021/07/24 15:18:47;;;;;;;12.40;11.20;;;29.10;76.10;;;;;;5142861;23;20425;-84
2021/07/24 15:20:51;;;;;;;12.37;11.17;;;29.00;76.90;;;;;;5152020;23;20503;-83
2021/07/24 15:22:54;;;;;;;11.27;10.07;;;29.00;76.20;;;;;;5151469;23;20425;-84
2021/07/24 15:24:57;;;;;;;11.80;10.70;;;28.90;77.60;;;;;;5143189;23;20780;-83
2021/07/24 15:27:00;;;;;;;12.40;11.23;;;28.90;77.20;;;;;;5151690;23;20443;-83
2021/07/24 15:29:03;;;;;;;12.17;10.83;;;29.10;76.80;;;;;;5150741;23;20429;-83
2021/07/24 15:31:19;;;;;;;11.40;10.30;;;28.80;76.60;;;;;;5152006;23;20468;-84
2021/07/24 15:33:25;;;;;;;12.23;11.10;;;28.80;76.80;;;;;;5150729;23;20425;-82
2021/07/24 15:35:28;;;;;;;12.10;11.00;;;28.60;77.50;;;;;;5142932;23;20472;-83
2021/07/24 15:37:32;;;;;;;12.03;10.93;;;28.80;77.90;;;;;;5151091;23;20420;-83
2021/07/24 15:39:35;;;;;;;12.57;11.40;;;29.00;76.70;;;;;;5150551;23;20533;-83
2021/07/24 15:41:38;;;;;;;12.60;11.30;;;29.00;76.70;;;;;;5142799;23;20456;-83
2021/07/24 15:43:41;;;;;;;12.50;11.40;;;29.00;77.00;;;;;;5142935;23;20507;-84
2021/07/24 15:45:44;;;;;;;12.23;11.13;;;28.80;77.30;;;;;;5151410;23;20441;-84
2021/07/24 15:47:48;;;;;;;12.87;11.57;;;28.80;77.30;;;;;;5150730;23;20475;-85
2021/07/24 15:49:51;;;;;;;10.83;9.83;;;28.80;77.00;;;;;;5151142;23;20421;-84
2021/07/24 15:51:54;;;;;;;11.70;10.50;;;28.60;76.10;;;;;;5143151;23;20933;-83
2021/07/24 15:53:57;;;;;;;12.70;10.57;;;28.40;76.10;;;;;;5143601;23;20821;-83
2021/07/24 15:56:01;;;;;;;11.60;10.60;;;28.50;75.80;;;;;;5151744;23;20511;-83
2021/07/24 15:58:05;;;;;;;12.10;10.90;;;28.50;75.10;;;;;;5116720;23;20465;-84
2021/07/24 16:00:09;;;;;;;10.97;9.97;;;28.60;75.50;;;;;;5151683;23;20428;-84
2021/07/24 16:02:12;;;;;;;12.60;11.43;;;28.60;75.50;;;;;;5151230;23;20419;-84
2021/07/24 16:04:17;;;;;;;11.93;10.57;;;28.60;75.50;;;;;;5151655;23;20421;-84
2021/07/24 16:06:20;;;;;;;12.80;10.97;;;28.70;75.00;;;;;;5150725;23;20468;-83
2021/07/24 16:08:23;;;;;;;12.20;10.83;;;28.70;75.30;;;;;;5151324;23;20444;-84
2021/07/24 16:10:26;;;;;;;13.43;10.53;;;28.80;75.10;;;;;;5151074;23;21291;-84
2021/07/24 16:12:29;;;;;;;12.00;10.80;;;28.60;75.80;;;;;;5151446;23;20425;-85
2021/07/24 16:14:55;;;;;;;11.63;10.53;;;28.70;75.90;;;;;;5143012;23;20417;-83
2021/07/24 16:17:00;;;;;;;11.80;10.67;;;28.60;76.20;;;;;;5143064;23;20436;-83
2021/07/24 16:19:03;;;;;;;13.03;11.80;;;28.50;76.10;;;;;;5155188;23;20458;-83
2021/07/24 16:21:09;;;;;;;12.50;11.20;;;28.40;75.60;;;;;;5151618;23;20425;-83
2021/07/24 16:23:13;;;;;;;16.00;11.70;;;28.40;76.00;;;;;;5151321;23;20503;-83
2021/07/24 16:25:16;;;;;;;12.53;11.07;;;28.40;76.50;;;;;;5151058;23;20759;-83
2021/07/24 16:27:19;;;;;;;12.20;11.13;;;28.40;77.20;;;;;;5142509;23;20480;-83
2021/07/24 16:29:30;;;;;;;12.87;11.07;;;28.30;77.20;;;;;;5150611;23;20419;-83
2021/07/24 16:31:33;;;;;;;12.30;11.10;;;28.30;76.80;;;;;;5150944;23;20467;-83
2021/07/24 16:33:37;;;;;;;12.23;10.83;;;28.20;76.80;;;;;;5151267;23;20428;-83
2021/07/24 16:35:42;;;;;;;11.60;10.40;;;28.20;77.10;;;;;;5151654;23;20437;-83
2021/07/24 16:37:55;;;;;;;13.67;12.27;;;28.20;76.40;;;;;;5143873;23;21092;-83
2021/07/24 16:39:58;;;;;;;11.27;10.17;;;28.10;76.10;;;;;;5151728;23;20423;-83
2021/07/24 16:42:01;;;;;;;12.87;11.57;;;28.00;76.90;;;;;;5151835;23;20937;-83
2021/07/24 16:44:04;;;;;;;12.10;11.00;;;28.00;77.30;;;;;;5152093;23;20431;-83
2021/07/24 16:46:17;;;;;;;12.03;10.27;;;28.00;77.30;;;;;;5151830;23;20440;-83
2021/07/24 16:48:32;;;;;;;12.20;11.00;;;27.90;77.10;;;;;;5150176;23;20798;-83
2021/07/24 16:50:51;;;;;;;12.00;10.90;;;27.90;76.80;;;;;;5150640;23;20490;-83
2021/07/24 16:53:09;;;;;;;12.60;11.30;;;28.00;76.80;;;;;;5150521;23;20503;-83
2021/07/24 16:55:24;;;;;;;11.63;10.60;;;27.80;76.60;;;;;;5150902;23;20499;-84
2021/07/24 16:57:41;;;;;;;12.10;10.90;;;27.90;76.90;;;;;;5143046;23;20415;-84
2021/07/24 16:59:47;;;;;;;13.70;12.30;;;28.00;76.20;;;;;;5155475;23;20431;-83
2021/07/24 17:01:50;;;;;;;12.03;10.93;;;27.90;76.50;;;;;;5141983;23;20798;-83
2021/07/24 17:03:53;;;;;;;11.73;10.53;;;28.00;76.60;;;;;;5150698;23;20424;-83
2021/07/24 17:05:56;;;;;;;13.17;11.97;;;27.80;76.80;;;;;;5150112;23;20452;-83
2021/07/24 17:08:04;;;;;;;12.33;11.03;;;27.80;77.00;;;;;;5150691;23;20523;-83
2021/07/24 17:10:08;;;;;;;12.90;11.63;;;27.80;77.20;;;;;;5151620;23;20412;-83
2021/07/24 17:12:12;;;;;;;13.77;10.70;;;27.90;77.30;;;;;;5145176;23;20428;-83
2021/07/24 17:14:19;;;;;;;13.17;11.90;;;28.00;76.90;;;;;;5153211;23;20456;-83
2021/07/24 17:16:22;;;;;;;12.47;11.23;;;28.00;77.70;;;;;;5153654;23;20445;-83
2021/07/24 17:18:25;;;;;;;12.27;11.07;;;28.00;81.80;;;;;;5153221;23;20909;-83
2021/07/24 17:20:28;;;;;;;13.40;11.63;;;27.90;83.60;;;;;;5154195;23;20421;-84
2021/07/24 17:22:31;;;;;;;12.10;11.00;;;27.70;84.90;;;;;;5156456;23;20432;-83
2021/07/24 17:24:36;;;;;;;13.27;11.97;;;27.60;85.80;;;;;;5156081;23;20817;-84
2021/07/24 17:26:39;;;;;;;13.60;12.20;;;27.50;86.70;;;;;;5145502;23;20433;-84
2021/07/24 17:28:42;;;;;;;13.37;12.07;;;27.40;87.20;;;;;;5144321;23;20447;-83
2021/07/24 17:30:46;;;;;;;13.57;12.27;;;27.20;88.10;;;;;;5154182;23;20662;-84
2021/07/24 17:32:49;;;;;;;13.10;11.97;;;27.10;88.50;;;;;;5144942;23;20892;-83
2021/07/24 17:34:52;;;;;;;13.03;11.83;;;27.00;88.90;;;;;;5152701;23;20922;-84
2021/07/24 17:36:55;;;;;;;12.50;11.20;;;26.90;89.70;;;;;;5143284;23;20421;-83
2021/07/24 17:38:58;;;;;;;12.97;11.67;;;26.90;89.70;;;;;;5143183;23;20421;-84
2021/07/24 17:41:03;;;;;;;12.63;11.37;;;26.70;90.20;;;;;;5151713;23;20421;-83
2021/07/24 17:43:06;;;;;;;13.80;12.40;;;26.70;90.20;;;;;;5153649;23;20986;-83
2021/07/24 17:45:11;;;;;;;13.43;12.13;;;26.60;90.50;;;;;;5152064;23;20444;-83
2021/07/24 17:47:19;;;;;;;12.70;11.37;;;26.50;90.50;;;;;;5152333;23;20412;-84
2021/07/24 17:49:22;;;;;;;13.90;12.50;;;26.50;90.80;;;;;;5151619;23;20441;-84
2021/07/24 17:51:25;;;;;;;13.60;11.90;;;26.50;90.80;;;;;;5152112;23;20424;-83
2021/07/24 17:53:28;;;;;;;13.37;12.07;;;26.40;90.90;;;;;;5152388;23;20445;-83
2021/07/24 17:55:31;;;;;;;19.40;12.70;;;26.40;91.30;;;;;;5143957;23;20456;-84
2021/07/24 17:57:36;;;;;;;13.33;11.80;;;26.30;91.30;;;;;;5151620;23;20501;-81
2021/07/24 17:59:41;;;;;;;15.13;13.73;;;26.30;91.70;;;;;;5152060;23;20413;-82
2021/07/24 18:01:44;;;;;;;13.60;12.20;;;26.30;91.40;;;;;;5151367;23;20499;-82
2021/07/24 18:03:48;;;;;;;15.20;13.20;;;26.20;91.70;;;;;;5143677;23;21020;-82
2021/07/24 18:05:51;;;;;;;14.03;12.70;;;26.10;91.80;;;;;;5151983;23;20444;-82
2021/07/24 18:07:56;;;;;;;14.93;12.43;;;26.10;91.80;;;;;;5143657;23;20532;-82
2021/07/24 18:09:58;;;;;;;13.97;12.60;;;26.00;92.20;;;;;;5152021;23;20528;-82
2021/07/24 18:12:01;;;;;;;17.87;13.73;;;26.00;92.40;;;;;;5143947;23;20516;-81
2021/07/24 18:14:06;;;;;;;15.13;12.93;;;25.90;92.60;;;;;;5143727;23;20431;-82
2021/07/24 18:16:13;;;;;;;14.63;12.70;;;25.90;92.50;;;;;;5150447;23;20444;-82
2021/07/24 18:18:16;;;;;;;15.77;13.00;;;25.80;92.80;;;;;;5151180;23;20421;-81
2021/07/24 18:20:22;;;;;;;13.80;12.40;;;25.80;93.10;;;;;;5143036;23;20433;-85
2021/07/24 18:22:25;;;;;;;14.20;12.70;;;25.80;93.20;;;;;;5143668;23;20409;-81
2021/07/24 18:24:28;;;;;;;14.60;13.20;;;25.70;93.60;;;;;;5143398;23;20429;-82
2021/07/24 18:26:31;;;;;;;14.50;13.10;;;25.70;93.80;;;;;;5147570;23;20449;-81
2021/07/24 18:28:34;;;;;;;16.00;12.50;;;25.60;94.00;;;;;;5142623;23;20484;-82
2021/07/24 18:30:39;;;;;;;14.13;12.70;;;25.60;94.10;;;;;;5143564;23;20433;-82
2021/07/24 18:32:42;;;;;;;15.50;13.90;;;25.60;94.30;;;;;;5151813;23;20466;-82
2021/07/24 18:34:45;;;;;;;15.73;13.23;;;25.50;94.60;;;;;;5151324;23;20421;-84
2021/07/24 18:36:48;;;;;;;15.37;13.37;;;25.50;94.80;;;;;;5142926;23;20432;-83
2021/07/24 18:38:52;;;;;;;13.87;12.47;;;25.40;95.10;;;;;;5150904;23;20427;-83
2021/07/24 18:40:58;;;;;;;14.80;13.13;;;25.40;95.20;;;;;;5143423;23;20827;-84
2021/07/24 18:43:01;;;;;;;14.70;13.10;;;25.40;95.20;;;;;;5151600;23;20424;-83
2021/07/24 18:45:04;;;;;;;15.10;13.70;;;25.40;95.30;;;;;;5151487;23;20437;-83
2021/07/24 18:47:08;;;;;;;15.10;12.87;;;25.40;95.40;;;;;;5151152;23;20417;-83
2021/07/24 18:49:12;;;;;;;14.73;13.23;;;25.40;95.60;;;;;;5142524;23;20492;-83
2021/07/24 18:51:15;;;;;;;14.70;13.27;;;25.40;95.70;;;;;;5151308;23;20417;-83
2021/07/24 18:53:18;;;;;;;16.43;13.00;;;25.40;95.80;;;;;;5151071;23;20948;-83
2021/07/24 18:55:21;;;;;;;16.53;14.80;;;25.30;96.20;;;;;;5150588;23;20445;-83
2021/07/24 18:57:23;;;;;;;16.20;13.40;;;25.20;96.50;;;;;;5143995;23;20503;-82
2021/07/24 18:59:27;;;;;;;17.50;13.57;;;25.20;96.80;;;;;;5142605;23;20600;-84
2021/07/24 19:01:30;;;;;;;15.53;13.07;;;25.10;96.90;;;;;;5151111;23;20424;-83
2021/07/24 19:03:35;;;;;;;19.47;15.07;;;25.20;96.90;;;;;;5150641;23;20479;-85
2021/07/24 19:05:41;;;;;;;16.30;14.60;;;25.20;96.90;;;;;;5150577;23;20491;-83
2021/07/24 19:07:44;;;;;;;16.27;14.67;;;25.20;97.10;;;;;;5143101;23;20414;-83
2021/07/24 19:09:48;;;;;;;15.07;13.27;;;25.10;97.40;;;;;;5142413;23;20455;-84
2021/07/24 19:11:51;;;;;;;18.50;14.67;;;25.00;97.70;;;;;;5151081;23;20417;-83
2021/07/24 19:13:53;;;;;;;16.13;13.60;;;25.00;98.00;;;;;;5142373;23;20526;-83
2021/07/24 19:15:59;;;;;;;14.93;12.90;;;25.00;98.10;;;;;;5151439;23;20897;-82
2021/07/24 19:18:02;;;;;;;14.33;12.90;;;24.90;98.30;;;;;;5142759;23;20432;-83
2021/07/24 19:20:08;;;;;;;16.00;14.33;;;24.80;98.30;;;;;;5151116;23;20728;-84
2021/07/24 19:22:11;;;;;;;15.90;14.40;;;24.90;98.30;;;;;;5142563;23;20491;-83
2021/07/24 19:24:15;;;;;;;15.57;13.97;;;24.80;98.30;;;;;;5155728;23;20504;-83
2021/07/24 19:26:26;;;;;;;14.90;13.40;;;24.80;98.30;;;;;;5150911;23;20992;-83
2021/07/24 19:28:31;;;;;;;14.77;13.27;;;24.70;98.30;;;;;;5151847;23;20401;-83
2021/07/24 19:30:34;;;;;;;17.80;14.27;;;24.70;98.30;;;;;;5152739;23;20523;-83
2021/07/24 19:32:37;;;;;;;18.57;15.47;;;24.70;98.30;;;;;;5141260;23;20421;-84
2021/07/24 19:34:40;;;;;;;15.90;14.33;;;24.70;98.30;;;;;;5141217;23;20421;-83
2021/07/24 19:36:44;;;;;;;17.60;14.30;;;24.60;98.30;;;;;;5141474;23;20743;-83
2021/07/24 19:38:47;;;;;;;15.37;13.47;;;24.60;98.30;;;;;;5141109;23;20425;-83
2021/07/24 19:40:50;;;;;;;16.37;13.50;;;24.50;98.30;;;;;;5141112;23;20421;-83
2021/07/24 19:42:53;;;;;;;14.33;12.93;;;24.50;98.30;;;;;;5149788;23;20476;-82
2021/07/24 19:44:56;;;;;;;16.80;14.67;;;24.50;98.30;;;;;;5141471;23;20449;-84
2021/07/24 19:47:00;;;;;;;14.37;12.87;;;24.50;98.30;;;;;;5149682;23;20914;-82
2021/07/24 19:49:06;;;;;;;15.87;13.70;;;24.50;98.30;;;;;;5141439;23;20944;-82
2021/07/24 19:51:09;;;;;;;16.37;13.60;;;24.50;98.30;;;;;;5141356;23;20460;-84
2021/07/24 19:53:16;;;;;;;14.77;13.30;;;24.50;98.30;;;;;;5144614;23;20436;-82
2021/07/24 19:55:19;;;;;;;15.53;13.73;;;24.40;98.30;;;;;;5150386;23;20436;-83
2021/07/24 19:57:22;;;;;;;14.80;13.30;;;24.40;98.30;;;;;;5141510;23;20432;-84
2021/07/24 19:59:28;;;;;;;13.77;12.47;;;24.40;98.30;;;;;;5149090;23;20428;-83
2021/07/24 20:01:35;;;;;;;15.43;13.10;;;24.30;98.30;;;;;;5149057;23;20774;-83
2021/07/24 20:03:39;;;;;;;16.13;13.80;;;24.50;98.30;;;;;;5149723;23;20425;-83
2021/07/24 20:05:42;;;;;;;22.57;15.10;;;24.50;98.00;;;;;;5149230;23;20508;-83
2021/07/24 20:07:45;;;;;;;17.93;14.10;;;24.50;97.60;;;;;;5149828;23;20827;-83
2021/07/24 20:09:53;;;;;;;14.43;12.90;;;24.50;97.60;;;;;;5141292;23;20748;-84
2021/07/24 20:11:57;;;;;;;15.37;13.73;;;24.40;97.60;;;;;;5149704;23;20793;-83
2021/07/24 20:14:00;;;;;;;14.73;13.23;;;24.50;97.20;;;;;;5149125;23;20425;-83
2021/07/24 20:16:06;;;;;;;15.90;13.57;;;24.50;97.00;;;;;;5149468;23;20441;-83
2021/07/24 20:18:09;;;;;;;16.57;14.87;;;24.50;96.70;;;;;;5149549;23;20420;-82
2021/07/24 20:20:13;;;;;;;15.27;13.33;;;24.40;96.80;;;;;;5149403;23;20421;-83
2021/07/24 20:22:17;;;;;;;16.40;13.90;;;24.40;96.50;;;;;;5142142;23;20496;-84
2021/07/24 20:24:23;;;;;;;17.60;13.57;;;24.40;96.10;;;;;;5150628;23;20468;-83
2021/07/24 20:26:30;;;;;;;16.50;14.77;;;24.40;95.80;;;;;;5150496;23;20436;-83
2021/07/24 20:28:33;;;;;;;22.67;15.57;;;24.30;95.50;;;;;;5150632;23;20405;-83
2021/07/24 20:30:36;;;;;;;14.90;13.40;;;24.50;95.20;;;;;;5150028;23;20444;-83
2021/07/24 20:32:40;;;;;;;16.23;14.40;;;24.40;95.10;;;;;;5119864;23;20422;-83
2021/07/24 20:34:43;;;;;;;15.70;14.20;;;24.40;95.10;;;;;;5119498;23;20923;-83
2021/07/24 20:36:49;;;;;;;16.53;14.80;;;24.30;95.00;;;;;;5125456;23;20452;-82
2021/07/24 20:38:52;;;;;;;17.20;14.60;;;24.40;94.80;;;;;;5116579;23;20498;-83
2021/07/24 20:40:55;;;;;;;17.10;14.20;;;24.30;94.70;;;;;;5125719;23;20414;-82